Chem Sirius — D5JP4 — position and weather

sailwx.info

Track history (hours):
 
Tides and Currents Weather Stations Pressure Air Temp Water Temp Dewpoint Dewpoint Depression Visibility Wind Speed Wind Dir Waves Ship Positions

Chem Sirius

Last reported at 2018-Jul-14 00:48 UTC. Time now 2018-Jul-16 14:35 UTC.
Position N 49°26' W 006°07'.

Length 146 m; draft 9.7 m.

Type: Ship (hazmat cat B). MMSI: 636017165.

Date/timePositionNaut miles runAvg speedWind from/ knotsBaromVisibWave heightAir tempDewpointWater temp
2018-Jul-14 00:48N 49°26' W 006°07'4314.5
2018-Jul-13 21:49N 49°37' W 005°03'412.9
2018-Jul-13 21:30N 49°38' W 004°57'2013.9
2018-Jul-13 20:06N 49°43' W 004°28'213.3
2018-Jul-13 19:58N 49°44' W 004°25'1012.8
2018-Jul-13 19:10N 49°47' W 004°10'312.1
2018-Jul-13 18:57N 49°48' W 004°06'1211.9
2018-Jul-13 17:57N 49°51' W 003°48'511.9
2018-Jul-13 17:31N 49°52' W 003°41'812.4
2018-Jul-13 16:50N 49°53' W 003°28'412.9
2018-Jul-13 16:31N 49°54' W 003°21'713.4
2018-Jul-13 16:01N 49°57' W 003°12'714.0
2018-Jul-13 15:30N 49°59' W 003°02'714.7
2018-Jul-13 15:01N 50°01' W 002°50'1616.1
2018-Jul-13 14:00N 50°05' W 002°26'2816.9
2018-Jul-13 12:21N 50°13' W 001°44'515.7
2018-Jul-13 12:00N 50°15' W 001°37'715.0
2018-Jul-13 11:31N 50°18' W 001°26'714.0
2018-Jul-13 11:00N 50°19' W 001°15'712.9
2018-Jul-13 10:30N 50°20' W 001°05'611.9
2018-Jul-13 10:00N 50°22' W 000°56'510.9
2018-Jul-13 09:30N 50°24' W 000°48'510.3
2018-Jul-13 09:00N 50°25' W 000°40'510.2
2018-Jul-13 08:30N 50°25' W 000°32'510.5
2018-Jul-13 08:00N 50°27' W 000°24'611.2
2018-Jul-13 07:30N 50°28' W 000°15'611.9
2018-Jul-13 07:00N 50°30' W 000°06'612.4
2018-Jul-13 06:30N 50°32' E 000°03'713.1
2018-Jul-13 06:00N 50°33' E 000°13'714.2
2018-Jul-13 05:30N 50°35' E 000°24'815.1
2018-Jul-13 05:00N 50°37' E 000°35'815.2
2018-Jul-13 04:30N 50°42' E 000°45'715.0
2018-Jul-13 04:01N 50°46' E 000°54'714.6
2018-Jul-13 03:30N 50°51' E 001°04'714.1
2018-Jul-13 03:00N 50°55' E 001°12'713.4
2018-Jul-13 02:30N 51°00' E 001°19'612.5
2018-Jul-13 02:00N 51°04' E 001°27'611.5
2018-Jul-13 01:30N 51°08' E 001°34'510.7
2018-Jul-13 01:00N 51°11' E 001°41'510.8
2018-Jul-13 00:30N 51°15' E 001°47'611.1
2018-Jul-13 00:00N 51°20' E 001°51'611.8
2018-Jul-12 23:30N 51°25' E 001°55'612.6
2018-Jul-12 23:00N 51°30' E 002°01'713.0
2018-Jul-12 22:30N 51°35' E 002°09'713.8
2018-Jul-12 22:00N 51°40' E 002°16'714.4
2018-Jul-12 21:30N 51°45' E 002°24'714.9
2018-Jul-12 21:01N 51°51' E 002°32'815.1
2018-Jul-12 20:30N 51°56' E 002°40'714.6
2018-Jul-12 20:00N 52°01' E 002°50'714.4
2018-Jul-12 19:30N 52°02' E 003°02'714.1
2018-Jul-12 19:00N 52°04' E 003°13'713.4
2018-Jul-12 18:30N 52°04' E 003°23'612.9
2018-Jul-12 18:00N 52°03' E 003°34'713.4
2018-Jul-12 17:30N 52°03' E 003°45'611.5
2018-Jul-12 17:00N 52°02' E 003°54'5 9.7
2018-Jul-12 16:30N 52°00' E 004°01'510.9
2018-Jul-12 16:00N 51°58' E 004°09'5 9.9
2018-Jul-12 15:30N 51°55' E 004°15'3 5.3
2018-Jul-12 15:00N 51°53' E 004°18'0 0.5
2018-Jul-12 14:29N 51°53' E 004°18'0 0.0
2018-Jul-12 13:56N 51°53' E 004°18'0 0.0
2018-Jul-12 13:29N 51°53' E 004°18'0 0.0
2018-Jul-12 12:59N 51°53' E 004°18'0 0.0
2018-Jul-12 12:26N 51°53' E 004°18'0 0.0
2018-Jul-12 11:59N 51°53' E 004°18'0 0.0
2018-Jul-12 11:29N 51°53' E 004°18'0 0.0
2018-Jul-12 10:59N 51°53' E 004°18'0 0.0
2018-Jul-12 10:26N 51°53' E 004°18'0 0.0
2018-Jul-12 09:59N 51°53' E 004°18'0 0.0
2018-Jul-12 09:29N 51°53' E 004°18'0 0.0
2018-Jul-12 08:56N 51°53' E 004°18'0 0.0
2018-Jul-12 08:29N 51°53' E 004°18'0 0.0
2018-Jul-12 07:59N 51°53' E 004°18'0 0.0
2018-Jul-12 07:29N 51°53' E 004°18'0 0.0
2018-Jul-12 06:59N 51°53' E 004°18'0 0.0
2018-Jul-12 06:29N 51°53' E 004°18'0 0.0
2018-Jul-12 05:59N 51°53' E 004°18'0 0.0
2018-Jul-12 05:26N 51°53' E 004°18'0 0.0
2018-Jul-12 04:59N 51°53' E 004°18'0 0.0
2018-Jul-12 04:29N 51°53' E 004°18'0 0.0
2018-Jul-12 03:59N 51°53' E 004°18'0 0.0
2018-Jul-12 03:29N 51°53' E 004°18'0 0.0
2018-Jul-12 02:59N 51°53' E 004°18'0 0.0
2018-Jul-12 02:29N 51°53' E 004°18'0 0.0
2018-Jul-12 01:59N 51°53' E 004°18'0 0.0
2018-Jul-12 01:29N 51°53' E 004°18'0 0.0
2018-Jul-12 00:59N 51°53' E 004°18'0 0.0
2018-Jul-12 00:29N 51°53' E 004°18'0 0.0
2018-Jul-11 23:59N 51°53' E 004°18'0 0.0
2018-Jul-11 23:29N 51°53' E 004°18'0 0.0
2018-Jul-11 22:59N 51°53' E 004°18'0 0.0
2018-Jul-11 22:26N 51°53' E 004°18'0 0.0
2018-Jul-11 21:59N 51°53' E 004°18'0 0.0
2018-Jul-11 21:29N 51°53' E 004°18'0 0.0
2018-Jul-11 20:59N 51°53' E 004°18'0 0.0
2018-Jul-11 20:29N 51°53' E 004°18'0 0.0
2018-Jul-11 19:59N 51°53' E 004°18'0 0.0
2018-Jul-11 19:26N 51°53' E 004°18'0 0.0
2018-Jul-11 18:59N 51°53' E 004°18'0 0.0
2018-Jul-11 18:29N 51°53' E 004°18'0 0.0
2018-Jul-11 17:59N 51°53' E 004°18'0 0.0
2018-Jul-11 17:29N 51°53' E 004°18'0 0.0
2018-Jul-11 16:59N 51°53' E 004°18'0 0.0
2018-Jul-11 16:29N 51°53' E 004°18'0 0.0
2018-Jul-11 15:56N 51°53' E 004°18'0 0.0
2018-Jul-11 15:29N 51°53' E 004°18'0 0.0
2018-Jul-11 14:56N 51°53' E 004°18'0 0.0
2018-Jul-11 14:29N 51°53' E 004°18'0 0.0
2018-Jul-11 13:56N 51°53' E 004°18'0 0.0
2018-Jul-11 13:29N 51°53' E 004°18'0 0.0
2018-Jul-11 12:59N 51°53' E 004°18'0 0.0
2018-Jul-11 12:29N 51°53' E 004°18'0 0.0
2018-Jul-11 11:59N 51°53' E 004°18'0 0.0
2018-Jul-11 11:29N 51°53' E 004°18'0 0.0
2018-Jul-11 10:59N 51°53' E 004°18'0 0.0
2018-Jul-11 10:29N 51°53' E 004°18'0 0.0
2018-Jul-11 09:59N 51°53' E 004°18'0 0.0
2018-Jul-11 09:29N 51°53' E 004°18'0 0.0
2018-Jul-11 08:59N 51°53' E 004°18'0 0.0
2018-Jul-11 08:29N 51°53' E 004°18'0 0.0
2018-Jul-11 07:59N 51°53' E 004°18'0 0.0
2018-Jul-11 07:29N 51°53' E 004°18'0 0.0
2018-Jul-11 06:59N 51°53' E 004°18'0 0.0
2018-Jul-11 06:29N 51°53' E 004°18'0 0.0
2018-Jul-11 05:59N 51°53' E 004°18'0 0.0
2018-Jul-11 05:29N 51°53' E 004°18'0 0.0
2018-Jul-11 04:59N 51°53' E 004°18'0 0.0
2018-Jul-11 04:29N 51°53' E 004°18'0 0.0
2018-Jul-11 03:59N 51°53' E 004°18'0 0.0
2018-Jul-11 03:29N 51°53' E 004°18'0 0.0
2018-Jul-11 02:56N 51°53' E 004°18'0 0.0
2018-Jul-11 02:29N 51°53' E 004°18'0 0.0
2018-Jul-11 01:59N 51°53' E 004°18'0 0.0
2018-Jul-11 01:29N 51°53' E 004°18'0 0.0
2018-Jul-11 00:59N 51°53' E 004°18'0 0.0
2018-Jul-11 00:29N 51°53' E 004°18'0 0.6
2018-Jul-11 00:01N 51°53' E 004°18'1 1.4
2018-Jul-10 23:31N 51°53' E 004°17'1 0.1
2018-Jul-10 18:37N 51°53' E 004°17'0 0.0
2018-Jul-10 18:19N 51°53' E 004°17'0 0.0
2018-Jul-10 16:01N 51°53' E 004°17'0 0.0
2018-Jul-10 15:49N 51°53' E 004°17'0 0.0
2018-Jul-10 15:25N 51°53' E 004°17'0 0.0
2018-Jul-10 12:01N 51°53' E 004°17'0 0.0
2018-Jul-10 12:00N 51°53' E 004°17'1 1.7
2018-Jul-10 11:30N 51°53' E 004°18'2 4.7
2018-Jul-10 11:00N 51°55' E 004°15'510.6
2018-Jul-10 10:30N 51°58' E 004°08'1 1.6
2018-Jul-10 10:00N 51°58' E 004°07'4 7.6
2018-Jul-10 09:30N 51°56' E 004°12'0 0.1
2018-Jul-10 08:58N 51°56' E 004°12'0 0.0
2018-Jul-10 08:28N 51°56' E 004°12'0 0.0
2018-Jul-10 07:52N 51°56' E 004°12'0 0.0
2018-Jul-10 07:28N 51°56' E 004°12'0 0.0
2018-Jul-10 06:55N 51°56' E 004°12'0 0.0
2018-Jul-10 06:16N 51°56' E 004°12'0 0.0
2018-Jul-10 05:58N 51°56' E 004°12'0 0.0
2018-Jul-10 05:28N 51°56' E 004°12'0 0.0
2018-Jul-10 04:58N 51°56' E 004°12'0 0.0
2018-Jul-10 04:28N 51°56' E 004°12'0 0.0
2018-Jul-10 03:52N 51°56' E 004°12'0 0.0
2018-Jul-10 03:28N 51°56' E 004°12'0 0.0
2018-Jul-10 02:58N 51°56' E 004°12'0 0.0
2018-Jul-10 02:22N 51°56' E 004°12'0 0.0
2018-Jul-10 01:58N 51°56' E 004°12'0 0.0
2018-Jul-10 01:28N 51°56' E 004°12'0 0.0
2018-Jul-10 00:58N 51°56' E 004°12'0 0.0
2018-Jul-10 00:28N 51°56' E 004°12'0 0.0
2018-Jul-09 23:58N 51°56' E 004°12'0 0.0
2018-Jul-09 23:28N 51°56' E 004°12'0 0.0
2018-Jul-09 22:58N 51°56' E 004°12'0 0.0
2018-Jul-09 22:28N 51°56' E 004°12'0 0.0
2018-Jul-09 21:58N 51°56' E 004°12'0 0.0
2018-Jul-09 21:28N 51°56' E 004°12'0 0.0
2018-Jul-09 20:52N 51°56' E 004°12'0 0.0
2018-Jul-09 20:28N 51°56' E 004°12'0 0.0
2018-Jul-09 19:58N 51°56' E 004°12'0 0.0
2018-Jul-09 19:28N 51°56' E 004°12'0 0.0
2018-Jul-09 18:52N 51°56' E 004°12'0 0.0
2018-Jul-09 18:28N 51°56' E 004°12'0 0.0
2018-Jul-09 17:58N 51°56' E 004°12'0 0.0
2018-Jul-09 17:25N 51°56' E 004°12'0 0.0
2018-Jul-09 16:58N 51°56' E 004°12'0 0.0
2018-Jul-09 16:19N 51°56' E 004°12'0 0.0
2018-Jul-09 15:58N 51°56' E 004°12'0 0.0
2018-Jul-09 15:28N 51°56' E 004°12'0 0.0
2018-Jul-09 14:58N 51°56' E 004°12'0 0.0
2018-Jul-09 14:28N 51°56' E 004°12'0 0.0
2018-Jul-09 13:58N 51°56' E 004°12'0 0.0
2018-Jul-09 13:22N 51°56' E 004°12'0 0.0
2018-Jul-09 12:52N 51°56' E 004°12'0 0.0
2018-Jul-09 12:28N 51°56' E 004°12'0 0.0
2018-Jul-09 11:58N 51°56' E 004°12'0 0.0
2018-Jul-09 11:22N 51°56' E 004°12'0 0.0
2018-Jul-09 10:52N 51°56' E 004°12'0 0.0
2018-Jul-09 10:22N 51°56' E 004°12'0 0.0
2018-Jul-09 09:58N 51°56' E 004°12'0 0.0
2018-Jul-09 09:28N 51°56' E 004°12'0 0.0
2018-Jul-09 08:58N 51°56' E 004°12'0 0.0
2018-Jul-09 08:28N 51°56' E 004°12'0 0.0
2018-Jul-09 07:58N 51°56' E 004°12'0 0.0
2018-Jul-09 07:28N 51°56' E 004°12'0 0.0
2018-Jul-09 06:59N 51°56' E 004°12'0 0.0
2018-Jul-09 06:28N 51°56' E 004°12'0 0.0
2018-Jul-09 05:58N 51°56' E 004°12'0 0.0
2018-Jul-09 05:22N 51°56' E 004°12'0 0.0
2018-Jul-09 04:58N 51°56' E 004°12'0 0.0
2018-Jul-09 04:28N 51°56' E 004°12'0 0.2
2018-Jul-09 04:00N 51°56' E 004°12'3 6.9
2018-Jul-09 03:30N 51°58' E 004°07'1 1.7
2018-Jul-09 03:01N 51°58' E 004°09'713.0
2018-Jul-09 02:30N 51°54' E 004°17'3 4.5
2018-Jul-09 01:56N 51°53' E 004°21'0 0.0
2018-Jul-09 01:29N 51°53' E 004°21'0 0.0
2018-Jul-09 00:38N 51°53' E 004°21'0 0.0
2018-Jul-09 00:26N 51°53' E 004°21'0 0.0
2018-Jul-08 23:56N 51°53' E 004°21'0 0.0
2018-Jul-08 23:20N 51°53' E 004°21'0 0.0
2018-Jul-08 22:56N 51°53' E 004°21'0 0.0
2018-Jul-08 22:20N 51°53' E 004°21'0 0.0
2018-Jul-08 21:50N 51°53' E 004°21'0 0.0
2018-Jul-08 21:26N 51°53' E 004°21'0 0.0
2018-Jul-08 20:50N 51°53' E 004°21'0 0.0
2018-Jul-08 20:14N 51°53' E 004°21'0 0.0
2018-Jul-08 19:56N 51°53' E 004°21'0 0.0
2018-Jul-08 19:26N 51°53' E 004°21'0 0.0
2018-Jul-08 18:56N 51°53' E 004°21'0 0.0
2018-Jul-08 18:26N 51°53' E 004°21'0 0.0
2018-Jul-08 17:50N 51°53' E 004°21'0 0.0
2018-Jul-08 17:20N 51°53' E 004°21'0 0.0
2018-Jul-08 16:44N 51°53' E 004°21'0 0.0
2018-Jul-08 16:26N 51°53' E 004°21'0 0.0
2018-Jul-08 15:56N 51°53' E 004°21'0 0.0
2018-Jul-08 15:26N 51°53' E 004°21'0 0.0
2018-Jul-08 14:56N 51°53' E 004°21'0 0.0
2018-Jul-08 14:26N 51°53' E 004°21'0 0.0
2018-Jul-08 13:56N 51°53' E 004°21'0 0.0
2018-Jul-08 13:26N 51°53' E 004°21'0 0.0
2018-Jul-08 12:56N 51°53' E 004°21'0 0.0
2018-Jul-08 12:26N 51°53' E 004°21'0 0.0
2018-Jul-08 11:56N 51°53' E 004°21'0 0.0
2018-Jul-08 11:26N 51°53' E 004°21'0 0.0
2018-Jul-08 10:56N 51°53' E 004°21'0 0.0
2018-Jul-08 10:26N 51°53' E 004°21'0 0.0
2018-Jul-08 09:56N 51°53' E 004°21'0 0.0
2018-Jul-08 09:26N 51°53' E 004°21'0 0.0
2018-Jul-08 08:56N 51°53' E 004°21'0 0.0
2018-Jul-08 08:26N 51°53' E 004°21'0 0.0
2018-Jul-08 07:56N 51°53' E 004°21'0 0.0
2018-Jul-08 07:26N 51°53' E 004°21'0 0.0
2018-Jul-08 06:56N 51°53' E 004°21'0 0.0
2018-Jul-08 06:20N 51°53' E 004°21'0 0.0
2018-Jul-08 05:59N 51°53' E 004°21'1 1.6
2018-Jul-08 05:29N 51°54' E 004°20'2 4.0
2018-Jul-08 05:00N 51°53' E 004°17'0 0.7
2018-Jul-08 04:25N 51°54' E 004°17'0 0.0
2018-Jul-08 03:58N 51°54' E 004°17'0 0.0
2018-Jul-08 03:28N 51°54' E 004°17'0 0.0
2018-Jul-08 01:52N 51°54' E 004°17'0 0.0
2018-Jul-08 01:28N 51°54' E 004°17'0 0.0
2018-Jul-08 00:58N 51°54' E 004°17'0 0.0
2018-Jul-08 00:28N 51°54' E 004°17'0 0.0
2018-Jul-07 23:58N 51°54' E 004°17'0 0.0
2018-Jul-07 23:28N 51°54' E 004°17'0 0.0
2018-Jul-07 22:52N 51°54' E 004°17'0 0.0
2018-Jul-07 21:43N 51°54' E 004°17'0 0.0
2018-Jul-07 21:28N 51°54' E 004°17'0 0.0
2018-Jul-07 20:58N 51°54' E 004°17'0 0.0
2018-Jul-07 20:10N 51°54' E 004°17'0 0.0
2018-Jul-07 19:52N 51°54' E 004°17'0 0.0
2018-Jul-07 19:22N 51°54' E 004°17'0 0.0
2018-Jul-07 18:58N 51°54' E 004°17'0 0.0
2018-Jul-07 18:22N 51°54' E 004°17'0 0.0
2018-Jul-07 17:52N 51°54' E 004°17'0 0.0
2018-Jul-07 17:28N 51°54' E 004°17'0 0.0
2018-Jul-07 16:52N 51°54' E 004°17'0 0.0
2018-Jul-07 15:28N 51°54' E 004°17'0 0.0
2018-Jul-07 14:58N 51°54' E 004°17'0 0.0
2018-Jul-07 14:28N 51°54' E 004°17'0 0.0
2018-Jul-07 12:58N 51°54' E 004°17'0 0.0
2018-Jul-07 12:28N 51°54' E 004°17'0 0.0
2018-Jul-07 11:46N 51°54' E 004°17'0 0.0
2018-Jul-07 11:28N 51°54' E 004°17'0 0.0
2018-Jul-07 10:52N 51°54' E 004°17'0 0.0
2018-Jul-07 09:40N 51°54' E 004°17'0 0.0
2018-Jul-07 09:25N 51°54' E 004°17'0 0.6
2018-Jul-07 09:00N 51°53' E 004°17'1 1.1
2018-Jul-07 08:30N 51°54' E 004°18'5 9.4
2018-Jul-07 08:00N 51°56' E 004°12'511.0
2018-Jul-07 07:30N 51°59' E 004°04'611.1
2018-Jul-07 07:00N 52°00' E 003°55'510.4
2018-Jul-07 06:30N 51°60' E 003°47'611.7
2018-Jul-07 06:00N 51°58' E 003°38'611.7
2018-Jul-07 05:30N 51°55' E 003°29'3 5.6
2018-Jul-07 05:00N 51°54' E 003°25'0 0.1
2018-Jul-07 04:30N 51°54' E 003°25'0 0.0
2018-Jul-07 03:57N 51°54' E 003°25'0 0.0
2018-Jul-07 03:27N 51°54' E 003°25'0 0.0
2018-Jul-07 03:00N 51°54' E 003°25'0 0.0
2018-Jul-07 02:27N 51°54' E 003°25'0 0.0
2018-Jul-07 01:57N 51°54' E 003°25'0 0.0
2018-Jul-07 01:27N 51°54' E 003°25'0 0.0
2018-Jul-07 00:54N 51°54' E 003°25'0 0.0
2018-Jul-07 00:30N 51°54' E 003°25'0 0.0
2018-Jul-06 23:57N 51°54' E 003°25'0 0.0
2018-Jul-06 23:30N 51°54' E 003°25'0 0.2
2018-Jul-06 22:57N 51°54' E 003°26'0 0.1
2018-Jul-06 22:30N 51°54' E 003°26'0 0.0
2018-Jul-06 22:00N 51°54' E 003°26'0 0.1
2018-Jul-06 21:31N 51°54' E 003°26'2 4.4
2018-Jul-06 21:01N 51°53' E 003°22'4 7.6
2018-Jul-06 20:31N 51°54' E 003°16'713.1
2018-Jul-06 20:01N 51°53' E 003°06'713.8
2018-Jul-06 19:30N 51°51' E 002°55'713.4
2018-Jul-06 19:00N 51°49' E 002°44'612.1
2018-Jul-06 18:30N 51°51' E 002°35'510.4
2018-Jul-06 18:00N 51°54' E 002°28'611.9
2018-Jul-06 17:30N 51°50' E 002°20'611.4
2018-Jul-06 16:59N 51°47' E 002°12'511.3
2018-Jul-06 16:30N 51°42' E 002°08'510.8
2018-Jul-06 16:00N 51°38' E 002°02'611.1
2018-Jul-06 15:30N 51°34' E 001°56'510.4
2018-Jul-06 15:00N 51°29' E 001°53'510.0
2018-Jul-06 14:30N 51°26' E 001°59'611.2
2018-Jul-06 14:00N 51°23' E 002°07'611.4
2018-Jul-06 13:30N 51°21' E 002°15'612.4
2018-Jul-06 13:00N 51°22' E 002°25'612.5
2018-Jul-06 12:30N 51°23' E 002°35'611.3
2018-Jul-06 11:59N 51°22' E 002°44'4 9.0
2018-Jul-06 11:30N 51°22' E 002°51'713.4
2018-Jul-06 11:00N 51°24' E 003°02'713.6
2018-Jul-06 10:30N 51°25' E 003°12'714.3
2018-Jul-06 10:00N 51°25' E 003°24'714.1
2018-Jul-06 09:31N 51°26' E 003°35'5 9.8
2018-Jul-06 09:01N 51°25' E 003°43'612.6
2018-Jul-06 08:31N 51°21' E 003°50'612.4
2018-Jul-06 08:01N 51°25' E 003°58'4 7.1
2018-Jul-06 07:31N 51°23' E 004°03'510.1
2018-Jul-06 07:00N 51°24' E 004°11'4 8.9
2018-Jul-06 06:31N 51°21' E 004°16'4 8.0
2018-Jul-06 06:01N 51°17' E 004°19'1 1.5
2018-Jul-06 05:31N 51°17' E 004°20'0 0.2
2018-Jul-06 05:01N 51°17' E 004°20'2 3.5
2018-Jul-06 04:30N 51°15' E 004°22'0 0.3
2018-Jul-06 03:58N 51°15' E 004°22'0 0.0
2018-Jul-06 03:28N 51°15' E 004°22'0 0.0
2018-Jul-06 02:58N 51°15' E 004°22'0 0.0
2018-Jul-06 02:28N 51°15' E 004°22'0 0.0
2018-Jul-06 01:58N 51°15' E 004°22'0 0.0
2018-Jul-06 01:28N 51°15' E 004°22'0 0.0
2018-Jul-06 00:58N 51°15' E 004°22'0 0.0
2018-Jul-06 00:28N 51°15' E 004°22'0 0.0
2018-Jul-05 23:58N 51°15' E 004°22'0 0.0
2018-Jul-05 23:25N 51°15' E 004°22'0 0.0
2018-Jul-05 22:58N 51°15' E 004°22'0 0.0
2018-Jul-05 22:28N 51°15' E 004°22'0 0.0
2018-Jul-05 21:58N 51°15' E 004°22'0 0.0
2018-Jul-05 21:28N 51°15' E 004°22'0 0.0
2018-Jul-05 20:58N 51°15' E 004°22'0 0.0
2018-Jul-05 20:28N 51°15' E 004°22'0 0.0
2018-Jul-05 19:58N 51°15' E 004°22'0 0.0
2018-Jul-05 19:28N 51°15' E 004°22'0 0.0
2018-Jul-05 18:58N 51°15' E 004°22'0 0.0
2018-Jul-05 18:28N 51°15' E 004°22'0 0.0
2018-Jul-05 17:58N 51°15' E 004°22'0 0.0
2018-Jul-05 17:25N 51°15' E 004°22'0 0.0
2018-Jul-05 16:58N 51°15' E 004°22'0 0.0
2018-Jul-05 16:28N 51°15' E 004°22'0 0.0
2018-Jul-05 15:58N 51°15' E 004°22'0 0.0
2018-Jul-05 15:25N 51°15' E 004°22'0 0.0
2018-Jul-05 14:58N 51°15' E 004°22'0 0.0
2018-Jul-05 13:58N 51°15' E 004°22'0 0.0
2018-Jul-05 13:28N 51°15' E 004°22'0 0.0
2018-Jul-05 12:58N 51°15' E 004°22'0 0.0
2018-Jul-05 12:28N 51°15' E 004°22'0 0.6
2018-Jul-05 11:52N 51°16' E 004°22'0 0.0
2018-Jul-05 11:10N 51°16' E 004°22'0 0.0
2018-Jul-05 10:58N 51°16' E 004°22'0 0.0
2018-Jul-05 10:28N 51°16' E 004°22'0 0.0
2018-Jul-05 09:55N 51°16' E 004°22'0 0.0
2018-Jul-05 09:28N 51°16' E 004°22'0 0.0
2018-Jul-05 08:58N 51°16' E 004°22'0 0.0
2018-Jul-05 08:25N 51°16' E 004°22'0 0.0
2018-Jul-05 07:55N 51°16' E 004°22'0 0.0
2018-Jul-05 07:28N 51°16' E 004°22'0 0.0
2018-Jul-05 06:58N 51°16' E 004°22'0 0.0
2018-Jul-05 06:22N 51°16' E 004°22'0 0.0
2018-Jul-05 05:58N 51°16' E 004°22'0 0.0
2018-Jul-05 05:28N 51°16' E 004°22'0 0.0
2018-Jul-05 04:58N 51°16' E 004°22'0 0.0
2018-Jul-05 04:28N 51°16' E 004°22'0 0.0
2018-Jul-05 03:58N 51°16' E 004°22'0 0.0
2018-Jul-05 03:28N 51°16' E 004°22'0 0.0
2018-Jul-05 02:55N 51°16' E 004°22'0 0.0
2018-Jul-05 02:28N 51°16' E 004°22'0 0.0
2018-Jul-05 01:58N 51°16' E 004°22'0 0.0
2018-Jul-05 01:25N 51°16' E 004°22'0 0.0
2018-Jul-05 00:55N 51°16' E 004°22'0 0.0
2018-Jul-05 00:28N 51°16' E 004°22'0 0.0
2018-Jul-04 23:58N 51°16' E 004°22'0 0.0
2018-Jul-04 23:22N 51°16' E 004°22'0 0.0
2018-Jul-04 22:58N 51°16' E 004°22'0 0.0
2018-Jul-04 22:25N 51°16' E 004°22'0 0.0
2018-Jul-04 21:58N 51°16' E 004°22'0 0.0
2018-Jul-04 21:28N 51°16' E 004°22'0 0.0
2018-Jul-04 20:58N 51°16' E 004°22'0 0.0
2018-Jul-04 20:28N 51°16' E 004°22'0 0.0
2018-Jul-04 19:55N 51°16' E 004°22'0 0.1
2018-Jul-04 19:31N 51°16' E 004°22'0 0.8
2018-Jul-04 19:00N 51°15' E 004°22'0 0.0
2018-Jul-04 18:31N 51°15' E 004°22'0 0.0
2018-Jul-04 18:01N 51°15' E 004°22'0 0.0
2018-Jul-04 17:30N 51°15' E 004°22'0 0.0
2018-Jul-04 17:01N 51°15' E 004°22'0 0.0
2018-Jul-04 16:31N 51°15' E 004°22'0 0.0
2018-Jul-04 16:01N 51°15' E 004°22'0 0.0
2018-Jul-04 15:31N 51°15' E 004°22'0 0.0
2018-Jul-04 15:00N 51°15' E 004°22'0 0.0
2018-Jul-04 14:31N 51°15' E 004°22'0 0.0
2018-Jul-04 14:00N 51°15' E 004°22'0 0.0
2018-Jul-04 13:30N 51°15' E 004°22'0 0.0
2018-Jul-04 13:01N 51°15' E 004°22'0 0.0
2018-Jul-04 12:31N 51°15' E 004°22'0 0.0
2018-Jul-04 12:01N 51°15' E 004°22'0 0.0
2018-Jul-04 11:31N 51°15' E 004°22'0 0.0
2018-Jul-04 11:00N 51°15' E 004°22'0 0.0
2018-Jul-04 10:31N 51°15' E 004°22'0 0.0
2018-Jul-04 10:01N 51°15' E 004°22'0 0.0
2018-Jul-04 09:31N 51°15' E 004°22'0 0.0
2018-Jul-04 09:01N 51°15' E 004°22'0 0.0
2018-Jul-04 08:31N 51°15' E 004°22'0 0.0
2018-Jul-04 08:01N 51°15' E 004°22'0 0.0
2018-Jul-04 07:30N 51°15' E 004°22'0 0.0
2018-Jul-04 07:00N 51°15' E 004°22'0 0.0
2018-Jul-04 06:30N 51°15' E 004°22'0 0.0
2018-Jul-04 06:00N 51°15' E 004°22'0 0.0
2018-Jul-04 05:31N 51°15' E 004°22'0 0.0
2018-Jul-04 05:00N 51°15' E 004°22'0 0.0
2018-Jul-04 04:30N 51°15' E 004°22'0 0.0
2018-Jul-04 04:01N 51°15' E 004°22'0 0.0
2018-Jul-04 03:31N 51°15' E 004°22'0 0.0
2018-Jul-04 03:00N 51°15' E 004°22'0 0.0
2018-Jul-04 02:30N 51°15' E 004°22'0 0.0
2018-Jul-04 02:01N 51°15' E 004°22'0 0.0
2018-Jul-04 01:31N 51°15' E 004°22'0 0.0
2018-Jul-04 01:00N 51°15' E 004°22'  
Track history (hours):
 
Tides and Currents Weather Stations Pressure Air Temp Water Temp Dewpoint Dewpoint Depression Visibility Wind Speed Wind Dir Waves Ship Positions

Chem Sirius

Last reported at 2018-Jul-14 00:48 UTC. Time now 2018-Jul-16 14:35 UTC.
Position N 49°26' W 006°07'.

Length 146 m; draft 9.7 m.

Type: Ship (hazmat cat B). MMSI: 636017165.

Date/timePositionNaut miles runAvg speedWind from/ knotsBaromVisibWave heightAir tempDewpointWater temp
2018-Jul-14 00:48N 49°26' W 006°07'4314.5
2018-Jul-13 21:49N 49°37' W 005°03'412.9
2018-Jul-13 21:30N 49°38' W 004°57'2013.9
2018-Jul-13 20:06N 49°43' W 004°28'213.3
2018-Jul-13 19:58N 49°44' W 004°25'1012.8
2018-Jul-13 19:10N 49°47' W 004°10'312.1
2018-Jul-13 18:57N 49°48' W 004°06'1211.9
2018-Jul-13 17:57N 49°51' W 003°48'511.9
2018-Jul-13 17:31N 49°52' W 003°41'812.4
2018-Jul-13 16:50N 49°53' W 003°28'412.9
2018-Jul-13 16:31N 49°54' W 003°21'713.4
2018-Jul-13 16:01N 49°57' W 003°12'714.0
2018-Jul-13 15:30N 49°59' W 003°02'714.7
2018-Jul-13 15:01N 50°01' W 002°50'1616.1
2018-Jul-13 14:00N 50°05' W 002°26'2816.9
2018-Jul-13 12:21N 50°13' W 001°44'515.7
2018-Jul-13 12:00N 50°15' W 001°37'715.0
2018-Jul-13 11:31N 50°18' W 001°26'714.0
2018-Jul-13 11:00N 50°19' W 001°15'712.9
2018-Jul-13 10:30N 50°20' W 001°05'611.9
2018-Jul-13 10:00N 50°22' W 000°56'510.9
2018-Jul-13 09:30N 50°24' W 000°48'510.3
2018-Jul-13 09:00N 50°25' W 000°40'510.2
2018-Jul-13 08:30N 50°25' W 000°32'510.5
2018-Jul-13 08:00N 50°27' W 000°24'611.2
2018-Jul-13 07:30N 50°28' W 000°15'611.9
2018-Jul-13 07:00N 50°30' W 000°06'612.4
2018-Jul-13 06:30N 50°32' E 000°03'713.1
2018-Jul-13 06:00N 50°33' E 000°13'714.2
2018-Jul-13 05:30N 50°35' E 000°24'815.1
2018-Jul-13 05:00N 50°37' E 000°35'815.2
2018-Jul-13 04:30N 50°42' E 000°45'715.0
2018-Jul-13 04:01N 50°46' E 000°54'714.6
2018-Jul-13 03:30N 50°51' E 001°04'714.1
2018-Jul-13 03:00N 50°55' E 001°12'713.4
2018-Jul-13 02:30N 51°00' E 001°19'612.5
2018-Jul-13 02:00N 51°04' E 001°27'611.5
2018-Jul-13 01:30N 51°08' E 001°34'510.7
2018-Jul-13 01:00N 51°11' E 001°41'510.8
2018-Jul-13 00:30N 51°15' E 001°47'611.1
2018-Jul-13 00:00N 51°20' E 001°51'611.8
2018-Jul-12 23:30N 51°25' E 001°55'612.6
2018-Jul-12 23:00N 51°30' E 002°01'713.0
2018-Jul-12 22:30N 51°35' E 002°09'713.8
2018-Jul-12 22:00N 51°40' E 002°16'714.4
2018-Jul-12 21:30N 51°45' E 002°24'714.9
2018-Jul-12 21:01N 51°51' E 002°32'815.1
2018-Jul-12 20:30N 51°56' E 002°40'714.6
2018-Jul-12 20:00N 52°01' E 002°50'714.4
2018-Jul-12 19:30N 52°02' E 003°02'714.1
2018-Jul-12 19:00N 52°04' E 003°13'713.4
2018-Jul-12 18:30N 52°04' E 003°23'612.9
2018-Jul-12 18:00N 52°03' E 003°34'713.4
2018-Jul-12 17:30N 52°03' E 003°45'611.5
2018-Jul-12 17:00N 52°02' E 003°54'5 9.7
2018-Jul-12 16:30N 52°00' E 004°01'510.9
2018-Jul-12 16:00N 51°58' E 004°09'5 9.9
2018-Jul-12 15:30N 51°55' E 004°15'3 5.3
2018-Jul-12 15:00N 51°53' E 004°18'0 0.5
2018-Jul-12 14:29N 51°53' E 004°18'0 0.0
2018-Jul-12 13:56N 51°53' E 004°18'0 0.0
2018-Jul-12 13:29N 51°53' E 004°18'0 0.0
2018-Jul-12 12:59N 51°53' E 004°18'0 0.0
2018-Jul-12 12:26N 51°53' E 004°18'0 0.0
2018-Jul-12 11:59N 51°53' E 004°18'0 0.0
2018-Jul-12 11:29N 51°53' E 004°18'0 0.0
2018-Jul-12 10:59N 51°53' E 004°18'0 0.0
2018-Jul-12 10:26N 51°53' E 004°18'0 0.0
2018-Jul-12 09:59N 51°53' E 004°18'0 0.0
2018-Jul-12 09:29N 51°53' E 004°18'0 0.0
2018-Jul-12 08:56N 51°53' E 004°18'0 0.0
2018-Jul-12 08:29N 51°53' E 004°18'0 0.0
2018-Jul-12 07:59N 51°53' E 004°18'0 0.0
2018-Jul-12 07:29N 51°53' E 004°18'0 0.0
2018-Jul-12 06:59N 51°53' E 004°18'0 0.0
2018-Jul-12 06:29N 51°53' E 004°18'0 0.0
2018-Jul-12 05:59N 51°53' E 004°18'0 0.0
2018-Jul-12 05:26N 51°53' E 004°18'0 0.0
2018-Jul-12 04:59N 51°53' E 004°18'0 0.0
2018-Jul-12 04:29N 51°53' E 004°18'0 0.0
2018-Jul-12 03:59N 51°53' E 004°18'0 0.0
2018-Jul-12 03:29N 51°53' E 004°18'0 0.0
2018-Jul-12 02:59N 51°53' E 004°18'0 0.0
2018-Jul-12 02:29N 51°53' E 004°18'0 0.0
2018-Jul-12 01:59N 51°53' E 004°18'0 0.0
2018-Jul-12 01:29N 51°53' E 004°18'0 0.0
2018-Jul-12 00:59N 51°53' E 004°18'0 0.0
2018-Jul-12 00:29N 51°53' E 004°18'0 0.0
2018-Jul-11 23:59N 51°53' E 004°18'0 0.0
2018-Jul-11 23:29N 51°53' E 004°18'0 0.0
2018-Jul-11 22:59N 51°53' E 004°18'0 0.0
2018-Jul-11 22:26N 51°53' E 004°18'0 0.0
2018-Jul-11 21:59N 51°53' E 004°18'0 0.0
2018-Jul-11 21:29N 51°53' E 004°18'0 0.0
2018-Jul-11 20:59N 51°53' E 004°18'0 0.0
2018-Jul-11 20:29N 51°53' E 004°18'0 0.0
2018-Jul-11 19:59N 51°53' E 004°18'0 0.0
2018-Jul-11 19:26N 51°53' E 004°18'0 0.0
2018-Jul-11 18:59N 51°53' E 004°18'0 0.0
2018-Jul-11 18:29N 51°53' E 004°18'0 0.0
2018-Jul-11 17:59N 51°53' E 004°18'0 0.0
2018-Jul-11 17:29N 51°53' E 004°18'0 0.0
2018-Jul-11 16:59N 51°53' E 004°18'0 0.0
2018-Jul-11 16:29N 51°53' E 004°18'0 0.0
2018-Jul-11 15:56N 51°53' E 004°18'0 0.0
2018-Jul-11 15:29N 51°53' E 004°18'0 0.0
2018-Jul-11 14:56N 51°53' E 004°18'0 0.0
2018-Jul-11 14:29N 51°53' E 004°18'0 0.0
2018-Jul-11 13:56N 51°53' E 004°18'0 0.0
2018-Jul-11 13:29N 51°53' E 004°18'0 0.0
2018-Jul-11 12:59N 51°53' E 004°18'0 0.0
2018-Jul-11 12:29N 51°53' E 004°18'0 0.0
2018-Jul-11 11:59N 51°53' E 004°18'0 0.0
2018-Jul-11 11:29N 51°53' E 004°18'0 0.0
2018-Jul-11 10:59N 51°53' E 004°18'0 0.0
2018-Jul-11 10:29N 51°53' E 004°18'0 0.0
2018-Jul-11 09:59N 51°53' E 004°18'0 0.0
2018-Jul-11 09:29N 51°53' E 004°18'0 0.0
2018-Jul-11 08:59N 51°53' E 004°18'0 0.0
2018-Jul-11 08:29N 51°53' E 004°18'0 0.0
2018-Jul-11 07:59N 51°53' E 004°18'0 0.0
2018-Jul-11 07:29N 51°53' E 004°18'0 0.0
2018-Jul-11 06:59N 51°53' E 004°18'0 0.0
2018-Jul-11 06:29N 51°53' E 004°18'0 0.0
2018-Jul-11 05:59N 51°53' E 004°18'0 0.0
2018-Jul-11 05:29N 51°53' E 004°18'0 0.0
2018-Jul-11 04:59N 51°53' E 004°18'0 0.0
2018-Jul-11 04:29N 51°53' E 004°18'0 0.0
2018-Jul-11 03:59N 51°53' E 004°18'0 0.0
2018-Jul-11 03:29N 51°53' E 004°18'0 0.0
2018-Jul-11 02:56N 51°53' E 004°18'0 0.0
2018-Jul-11 02:29N 51°53' E 004°18'0 0.0
2018-Jul-11 01:59N 51°53' E 004°18'0 0.0
2018-Jul-11 01:29N 51°53' E 004°18'0 0.0
2018-Jul-11 00:59N 51°53' E 004°18'0 0.0
2018-Jul-11 00:29N 51°53' E 004°18'0 0.6
2018-Jul-11 00:01N 51°53' E 004°18'1 1.4
2018-Jul-10 23:31N 51°53' E 004°17'1 0.1
2018-Jul-10 18:37N 51°53' E 004°17'0 0.0
2018-Jul-10 18:19N 51°53' E 004°17'0 0.0
2018-Jul-10 16:01N 51°53' E 004°17'0 0.0
2018-Jul-10 15:49N 51°53' E 004°17'0 0.0
2018-Jul-10 15:25N 51°53' E 004°17'0 0.0
2018-Jul-10 12:01N 51°53' E 004°17'0 0.0
2018-Jul-10 12:00N 51°53' E 004°17'1 1.7
2018-Jul-10 11:30N 51°53' E 004°18'2 4.7
2018-Jul-10 11:00N 51°55' E 004°15'510.6
2018-Jul-10 10:30N 51°58' E 004°08'1 1.6
2018-Jul-10 10:00N 51°58' E 004°07'4 7.6
2018-Jul-10 09:30N 51°56' E 004°12'0 0.1
2018-Jul-10 08:58N 51°56' E 004°12'0 0.0
2018-Jul-10 08:28N 51°56' E 004°12'0 0.0
2018-Jul-10 07:52N 51°56' E 004°12'0 0.0
2018-Jul-10 07:28N 51°56' E 004°12'0 0.0
2018-Jul-10 06:55N 51°56' E 004°12'0 0.0
2018-Jul-10 06:16N 51°56' E 004°12'0 0.0
2018-Jul-10 05:58N 51°56' E 004°12'0 0.0
2018-Jul-10 05:28N 51°56' E 004°12'0 0.0
2018-Jul-10 04:58N 51°56' E 004°12'0 0.0
2018-Jul-10 04:28N 51°56' E 004°12'0 0.0
2018-Jul-10 03:52N 51°56' E 004°12'0 0.0
2018-Jul-10 03:28N 51°56' E 004°12'0 0.0
2018-Jul-10 02:58N 51°56' E 004°12'0 0.0
2018-Jul-10 02:22N 51°56' E 004°12'0 0.0
2018-Jul-10 01:58N 51°56' E 004°12'0 0.0
2018-Jul-10 01:28N 51°56' E 004°12'0 0.0
2018-Jul-10 00:58N 51°56' E 004°12'0 0.0
2018-Jul-10 00:28N 51°56' E 004°12'0 0.0
2018-Jul-09 23:58N 51°56' E 004°12'0 0.0
2018-Jul-09 23:28N 51°56' E 004°12'0 0.0
2018-Jul-09 22:58N 51°56' E 004°12'0 0.0
2018-Jul-09 22:28N 51°56' E 004°12'0 0.0
2018-Jul-09 21:58N 51°56' E 004°12'0 0.0
2018-Jul-09 21:28N 51°56' E 004°12'0 0.0
2018-Jul-09 20:52N 51°56' E 004°12'0 0.0
2018-Jul-09 20:28N 51°56' E 004°12'0 0.0
2018-Jul-09 19:58N 51°56' E 004°12'0 0.0
2018-Jul-09 19:28N 51°56' E 004°12'0 0.0
2018-Jul-09 18:52N 51°56' E 004°12'0 0.0
2018-Jul-09 18:28N 51°56' E 004°12'0 0.0
2018-Jul-09 17:58N 51°56' E 004°12'0 0.0
2018-Jul-09 17:25N 51°56' E 004°12'0 0.0
2018-Jul-09 16:58N 51°56' E 004°12'0 0.0
2018-Jul-09 16:19N 51°56' E 004°12'0 0.0
2018-Jul-09 15:58N 51°56' E 004°12'0 0.0
2018-Jul-09 15:28N 51°56' E 004°12'0 0.0
2018-Jul-09 14:58N 51°56' E 004°12'0 0.0
2018-Jul-09 14:28N 51°56' E 004°12'0 0.0
2018-Jul-09 13:58N 51°56' E 004°12'0 0.0
2018-Jul-09 13:22N 51°56' E 004°12'0 0.0
2018-Jul-09 12:52N 51°56' E 004°12'0 0.0
2018-Jul-09 12:28N 51°56' E 004°12'0 0.0
2018-Jul-09 11:58N 51°56' E 004°12'0 0.0
2018-Jul-09 11:22N 51°56' E 004°12'0 0.0
2018-Jul-09 10:52N 51°56' E 004°12'0 0.0
2018-Jul-09 10:22N 51°56' E 004°12'0 0.0
2018-Jul-09 09:58N 51°56' E 004°12'0 0.0
2018-Jul-09 09:28N 51°56' E 004°12'0 0.0
2018-Jul-09 08:58N 51°56' E 004°12'0 0.0
2018-Jul-09 08:28N 51°56' E 004°12'0 0.0
2018-Jul-09 07:58N 51°56' E 004°12'0 0.0
2018-Jul-09 07:28N 51°56' E 004°12'0 0.0
2018-Jul-09 06:59N 51°56' E 004°12'0 0.0
2018-Jul-09 06:28N 51°56' E 004°12'0 0.0
2018-Jul-09 05:58N 51°56' E 004°12'0 0.0
2018-Jul-09 05:22N 51°56' E 004°12'0 0.0
2018-Jul-09 04:58N 51°56' E 004°12'0 0.0
2018-Jul-09 04:28N 51°56' E 004°12'0 0.2
2018-Jul-09 04:00N 51°56' E 004°12'3 6.9
2018-Jul-09 03:30N 51°58' E 004°07'1 1.7
2018-Jul-09 03:01N 51°58' E 004°09'713.0
2018-Jul-09 02:30N 51°54' E 004°17'3 4.5
2018-Jul-09 01:56N 51°53' E 004°21'0 0.0
2018-Jul-09 01:29N 51°53' E 004°21'0 0.0
2018-Jul-09 00:38N 51°53' E 004°21'0 0.0
2018-Jul-09 00:26N 51°53' E 004°21'0 0.0
2018-Jul-08 23:56N 51°53' E 004°21'0 0.0
2018-Jul-08 23:20N 51°53' E 004°21'0 0.0
2018-Jul-08 22:56N 51°53' E 004°21'0 0.0
2018-Jul-08 22:20N 51°53' E 004°21'0 0.0
2018-Jul-08 21:50N 51°53' E 004°21'0 0.0
2018-Jul-08 21:26N 51°53' E 004°21'0 0.0
2018-Jul-08 20:50N 51°53' E 004°21'0 0.0
2018-Jul-08 20:14N 51°53' E 004°21'0 0.0
2018-Jul-08 19:56N 51°53' E 004°21'0 0.0
2018-Jul-08 19:26N 51°53' E 004°21'0 0.0
2018-Jul-08 18:56N 51°53' E 004°21'0 0.0
2018-Jul-08 18:26N 51°53' E 004°21'0 0.0
2018-Jul-08 17:50N 51°53' E 004°21'0 0.0
2018-Jul-08 17:20N 51°53' E 004°21'0 0.0
2018-Jul-08 16:44N 51°53' E 004°21'0 0.0
2018-Jul-08 16:26N 51°53' E 004°21'0 0.0
2018-Jul-08 15:56N 51°53' E 004°21'0 0.0
2018-Jul-08 15:26N 51°53' E 004°21'0 0.0
2018-Jul-08 14:56N 51°53' E 004°21'0 0.0
2018-Jul-08 14:26N 51°53' E 004°21'0 0.0
2018-Jul-08 13:56N 51°53' E 004°21'0 0.0
2018-Jul-08 13:26N 51°53' E 004°21'0 0.0
2018-Jul-08 12:56N 51°53' E 004°21'0 0.0
2018-Jul-08 12:26N 51°53' E 004°21'0 0.0
2018-Jul-08 11:56N 51°53' E 004°21'0 0.0
2018-Jul-08 11:26N 51°53' E 004°21'0 0.0
2018-Jul-08 10:56N 51°53' E 004°21'0 0.0
2018-Jul-08 10:26N 51°53' E 004°21'0 0.0
2018-Jul-08 09:56N 51°53' E 004°21'0 0.0
2018-Jul-08 09:26N 51°53' E 004°21'0 0.0
2018-Jul-08 08:56N 51°53' E 004°21'0 0.0
2018-Jul-08 08:26N 51°53' E 004°21'0 0.0
2018-Jul-08 07:56N 51°53' E 004°21'0 0.0
2018-Jul-08 07:26N 51°53' E 004°21'0 0.0
2018-Jul-08 06:56N 51°53' E 004°21'0 0.0
2018-Jul-08 06:20N 51°53' E 004°21'0 0.0
2018-Jul-08 05:59N 51°53' E 004°21'1 1.6
2018-Jul-08 05:29N 51°54' E 004°20'2 4.0
2018-Jul-08 05:00N 51°53' E 004°17'0 0.7
2018-Jul-08 04:25N 51°54' E 004°17'0 0.0
2018-Jul-08 03:58N 51°54' E 004°17'0 0.0
2018-Jul-08 03:28N 51°54' E 004°17'0 0.0
2018-Jul-08 01:52N 51°54' E 004°17'0 0.0
2018-Jul-08 01:28N 51°54' E 004°17'0 0.0
2018-Jul-08 00:58N 51°54' E 004°17'0 0.0
2018-Jul-08 00:28N 51°54' E 004°17'0 0.0
2018-Jul-07 23:58N 51°54' E 004°17'0 0.0
2018-Jul-07 23:28N 51°54' E 004°17'0 0.0
2018-Jul-07 22:52N 51°54' E 004°17'0 0.0
2018-Jul-07 21:43N 51°54' E 004°17'0 0.0
2018-Jul-07 21:28N 51°54' E 004°17'0 0.0
2018-Jul-07 20:58N 51°54' E 004°17'0 0.0
2018-Jul-07 20:10N 51°54' E 004°17'0 0.0
2018-Jul-07 19:52N 51°54' E 004°17'0 0.0
2018-Jul-07 19:22N 51°54' E 004°17'0 0.0
2018-Jul-07 18:58N 51°54' E 004°17'0 0.0
2018-Jul-07 18:22N 51°54' E 004°17'0 0.0
2018-Jul-07 17:52N 51°54' E 004°17'0 0.0
2018-Jul-07 17:28N 51°54' E 004°17'0 0.0
2018-Jul-07 16:52N 51°54' E 004°17'0 0.0
2018-Jul-07 15:28N 51°54' E 004°17'0 0.0
2018-Jul-07 14:58N 51°54' E 004°17'0 0.0
2018-Jul-07 14:28N 51°54' E 004°17'0 0.0
2018-Jul-07 12:58N 51°54' E 004°17'0 0.0
2018-Jul-07 12:28N 51°54' E 004°17'0 0.0
2018-Jul-07 11:46N 51°54' E 004°17'0 0.0
2018-Jul-07 11:28N 51°54' E 004°17'0 0.0
2018-Jul-07 10:52N 51°54' E 004°17'0 0.0
2018-Jul-07 09:40N 51°54' E 004°17'0 0.0
2018-Jul-07 09:25N 51°54' E 004°17'0 0.6
2018-Jul-07 09:00N 51°53' E 004°17'1 1.1
2018-Jul-07 08:30N 51°54' E 004°18'5 9.4
2018-Jul-07 08:00N 51°56' E 004°12'511.0
2018-Jul-07 07:30N 51°59' E 004°04'611.1
2018-Jul-07 07:00N 52°00' E 003°55'510.4
2018-Jul-07 06:30N 51°60' E 003°47'611.7
2018-Jul-07 06:00N 51°58' E 003°38'611.7
2018-Jul-07 05:30N 51°55' E 003°29'3 5.6
2018-Jul-07 05:00N 51°54' E 003°25'0 0.1
2018-Jul-07 04:30N 51°54' E 003°25'0 0.0
2018-Jul-07 03:57N 51°54' E 003°25'0 0.0
2018-Jul-07 03:27N 51°54' E 003°25'0 0.0
2018-Jul-07 03:00N 51°54' E 003°25'0 0.0
2018-Jul-07 02:27N 51°54' E 003°25'0 0.0
2018-Jul-07 01:57N 51°54' E 003°25'0 0.0
2018-Jul-07 01:27N 51°54' E 003°25'0 0.0
2018-Jul-07 00:54N 51°54' E 003°25'0 0.0
2018-Jul-07 00:30N 51°54' E 003°25'0 0.0
2018-Jul-06 23:57N 51°54' E 003°25'0 0.0
2018-Jul-06 23:30N 51°54' E 003°25'0 0.2
2018-Jul-06 22:57N 51°54' E 003°26'0 0.1
2018-Jul-06 22:30N 51°54' E 003°26'0 0.0
2018-Jul-06 22:00N 51°54' E 003°26'0 0.1
2018-Jul-06 21:31N 51°54' E 003°26'2 4.4
2018-Jul-06 21:01N 51°53' E 003°22'4 7.6
2018-Jul-06 20:31N 51°54' E 003°16'713.1
2018-Jul-06 20:01N 51°53' E 003°06'713.8
2018-Jul-06 19:30N 51°51' E 002°55'713.4
2018-Jul-06 19:00N 51°49' E 002°44'612.1
2018-Jul-06 18:30N 51°51' E 002°35'510.4
2018-Jul-06 18:00N 51°54' E 002°28'611.9
2018-Jul-06 17:30N 51°50' E 002°20'611.4
2018-Jul-06 16:59N 51°47' E 002°12'511.3
2018-Jul-06 16:30N 51°42' E 002°08'510.8
2018-Jul-06 16:00N 51°38' E 002°02'611.1
2018-Jul-06 15:30N 51°34' E 001°56'510.4
2018-Jul-06 15:00N 51°29' E 001°53'510.0
2018-Jul-06 14:30N 51°26' E 001°59'611.2
2018-Jul-06 14:00N 51°23' E 002°07'611.4
2018-Jul-06 13:30N 51°21' E 002°15'612.4
2018-Jul-06 13:00N 51°22' E 002°25'612.5
2018-Jul-06 12:30N 51°23' E 002°35'611.3
2018-Jul-06 11:59N 51°22' E 002°44'4 9.0
2018-Jul-06 11:30N 51°22' E 002°51'713.4
2018-Jul-06 11:00N 51°24' E 003°02'713.6
2018-Jul-06 10:30N 51°25' E 003°12'714.3
2018-Jul-06 10:00N 51°25' E 003°24'714.1
2018-Jul-06 09:31N 51°26' E 003°35'5 9.8
2018-Jul-06 09:01N 51°25' E 003°43'612.6
2018-Jul-06 08:31N 51°21' E 003°50'612.4
2018-Jul-06 08:01N 51°25' E 003°58'4 7.1
2018-Jul-06 07:31N 51°23' E 004°03'510.1
2018-Jul-06 07:00N 51°24' E 004°11'4 8.9
2018-Jul-06 06:31N 51°21' E 004°16'4 8.0
2018-Jul-06 06:01N 51°17' E 004°19'1 1.5
2018-Jul-06 05:31N 51°17' E 004°20'0 0.2
2018-Jul-06 05:01N 51°17' E 004°20'2 3.5
2018-Jul-06 04:30N 51°15' E 004°22'0 0.3
2018-Jul-06 03:58N 51°15' E 004°22'0 0.0
2018-Jul-06 03:28N 51°15' E 004°22'0 0.0
2018-Jul-06 02:58N 51°15' E 004°22'0 0.0
2018-Jul-06 02:28N 51°15' E 004°22'0 0.0
2018-Jul-06 01:58N 51°15' E 004°22'0 0.0
2018-Jul-06 01:28N 51°15' E 004°22'0 0.0
2018-Jul-06 00:58N 51°15' E 004°22'0 0.0
2018-Jul-06 00:28N 51°15' E 004°22'0 0.0
2018-Jul-05 23:58N 51°15' E 004°22'0 0.0
2018-Jul-05 23:25N 51°15' E 004°22'0 0.0
2018-Jul-05 22:58N 51°15' E 004°22'0 0.0
2018-Jul-05 22:28N 51°15' E 004°22'0 0.0
2018-Jul-05 21:58N 51°15' E 004°22'0 0.0
2018-Jul-05 21:28N 51°15' E 004°22'0 0.0
2018-Jul-05 20:58N 51°15' E 004°22'0 0.0
2018-Jul-05 20:28N 51°15' E 004°22'0 0.0
2018-Jul-05 19:58N 51°15' E 004°22'0 0.0
2018-Jul-05 19:28N 51°15' E 004°22'0 0.0
2018-Jul-05 18:58N 51°15' E 004°22'0 0.0
2018-Jul-05 18:28N 51°15' E 004°22'0 0.0
2018-Jul-05 17:58N 51°15' E 004°22'0 0.0
2018-Jul-05 17:25N 51°15' E 004°22'0 0.0
2018-Jul-05 16:58N 51°15' E 004°22'0 0.0
2018-Jul-05 16:28N 51°15' E 004°22'0 0.0
2018-Jul-05 15:58N 51°15' E 004°22'0 0.0
2018-Jul-05 15:25N 51°15' E 004°22'0 0.0
2018-Jul-05 14:58N 51°15' E 004°22'0 0.0
2018-Jul-05 13:58N 51°15' E 004°22'0 0.0
2018-Jul-05 13:28N 51°15' E 004°22'0 0.0
2018-Jul-05 12:58N 51°15' E 004°22'0 0.0
2018-Jul-05 12:28N 51°15' E 004°22'0 0.6
2018-Jul-05 11:52N 51°16' E 004°22'0 0.0
2018-Jul-05 11:10N 51°16' E 004°22'0 0.0
2018-Jul-05 10:58N 51°16' E 004°22'0 0.0
2018-Jul-05 10:28N 51°16' E 004°22'0 0.0
2018-Jul-05 09:55N 51°16' E 004°22'0 0.0
2018-Jul-05 09:28N 51°16' E 004°22'0 0.0
2018-Jul-05 08:58N 51°16' E 004°22'0 0.0
2018-Jul-05 08:25N 51°16' E 004°22'0 0.0
2018-Jul-05 07:55N 51°16' E 004°22'0 0.0
2018-Jul-05 07:28N 51°16' E 004°22'0 0.0
2018-Jul-05 06:58N 51°16' E 004°22'0 0.0
2018-Jul-05 06:22N 51°16' E 004°22'0 0.0
2018-Jul-05 05:58N 51°16' E 004°22'0 0.0
2018-Jul-05 05:28N 51°16' E 004°22'0 0.0
2018-Jul-05 04:58N 51°16' E 004°22'0 0.0
2018-Jul-05 04:28N 51°16' E 004°22'0 0.0
2018-Jul-05 03:58N 51°16' E 004°22'0 0.0
2018-Jul-05 03:28N 51°16' E 004°22'0 0.0
2018-Jul-05 02:55N 51°16' E 004°22'0 0.0
2018-Jul-05 02:28N 51°16' E 004°22'0 0.0
2018-Jul-05 01:58N 51°16' E 004°22'0 0.0
2018-Jul-05 01:25N 51°16' E 004°22'0 0.0
2018-Jul-05 00:55N 51°16' E 004°22'0 0.0
2018-Jul-05 00:28N 51°16' E 004°22'0 0.0
2018-Jul-04 23:58N 51°16' E 004°22'0 0.0
2018-Jul-04 23:22N 51°16' E 004°22'0 0.0
2018-Jul-04 22:58N 51°16' E 004°22'0 0.0
2018-Jul-04 22:25N 51°16' E 004°22'0 0.0
2018-Jul-04 21:58N 51°16' E 004°22'0 0.0
2018-Jul-04 21:28N 51°16' E 004°22'0 0.0
2018-Jul-04 20:58N 51°16' E 004°22'0 0.0
2018-Jul-04 20:28N 51°16' E 004°22'0 0.0
2018-Jul-04 19:55N 51°16' E 004°22'0 0.1
2018-Jul-04 19:31N 51°16' E 004°22'0 0.8
2018-Jul-04 19:00N 51°15' E 004°22'0 0.0
2018-Jul-04 18:31N 51°15' E 004°22'0 0.0
2018-Jul-04 18:01N 51°15' E 004°22'0 0.0
2018-Jul-04 17:30N 51°15' E 004°22'0 0.0
2018-Jul-04 17:01N 51°15' E 004°22'0 0.0
2018-Jul-04 16:31N 51°15' E 004°22'0 0.0
2018-Jul-04 16:01N 51°15' E 004°22'0 0.0
2018-Jul-04 15:31N 51°15' E 004°22'0 0.0
2018-Jul-04 15:00N 51°15' E 004°22'0 0.0
2018-Jul-04 14:31N 51°15' E 004°22'0 0.0
2018-Jul-04 14:00N 51°15' E 004°22'0 0.0
2018-Jul-04 13:30N 51°15' E 004°22'0 0.0
2018-Jul-04 13:01N 51°15' E 004°22'0 0.0
2018-Jul-04 12:31N 51°15' E 004°22'0 0.0
2018-Jul-04 12:01N 51°15' E 004°22'0 0.0
2018-Jul-04 11:31N 51°15' E 004°22'0 0.0
2018-Jul-04 11:00N 51°15' E 004°22'0 0.0
2018-Jul-04 10:31N 51°15' E 004°22'0 0.0
2018-Jul-04 10:01N 51°15' E 004°22'0 0.0
2018-Jul-04 09:31N 51°15' E 004°22'0 0.0
2018-Jul-04 09:01N 51°15' E 004°22'0 0.0
2018-Jul-04 08:31N 51°15' E 004°22'0 0.0
2018-Jul-04 08:01N 51°15' E 004°22'0 0.0
2018-Jul-04 07:30N 51°15' E 004°22'0 0.0
2018-Jul-04 07:00N 51°15' E 004°22'0 0.0
2018-Jul-04 06:30N 51°15' E 004°22'0 0.0
2018-Jul-04 06:00N 51°15' E 004°22'0 0.0
2018-Jul-04 05:31N 51°15' E 004°22'0 0.0
2018-Jul-04 05:00N 51°15' E 004°22'0 0.0
2018-Jul-04 04:30N 51°15' E 004°22'0 0.0
2018-Jul-04 04:01N 51°15' E 004°22'0 0.0
2018-Jul-04 03:31N 51°15' E 004°22'0 0.0
2018-Jul-04 03:00N 51°15' E 004°22'0 0.0
2018-Jul-04 02:30N 51°15' E 004°22'0 0.0
2018-Jul-04 02:01N 51°15' E 004°22'0 0.0
2018-Jul-04 01:31N 51°15' E 004°22'0 0.0
2018-Jul-04 01:00N 51°15' E 004°22'  

Dump ship's entire track history